createdAt,value
2018-07-02T00:01:07.026Z,8.90
2018-07-02T00:03:34.527Z,11.12
2018-07-02T00:09:03.896Z,19.45
2018-07-02T00:11:32.146Z,9.77
2018-07-02T00:13:59.644Z,8.18
2018-07-02T00:16:27.102Z,9.85
2018-07-02T00:18:54.614Z,8.40
2018-07-02T00:21:22.106Z,9.02
2018-07-02T00:23:49.696Z,8.60
2018-07-02T00:26:17.172Z,9.15
2018-07-02T00:28:44.689Z,9.07
2018-07-02T00:31:12.576Z,9.45
2018-07-02T00:33:40.001Z,9.20
2018-07-02T00:36:08.441Z,10.23
2018-07-02T00:38:36.881Z,9.05
2018-07-02T00:41:04.372Z,10.60
2018-07-02T00:43:31.870Z,8.68
2018-07-02T00:45:59.396Z,8.23
2018-07-02T00:48:26.890Z,10.50
2018-07-02T00:50:54.367Z,8.55
2018-07-02T00:53:21.981Z,8.82
2018-07-02T00:55:49.491Z,7.68
2018-07-02T00:58:17.035Z,7.97
2018-07-02T01:00:44.484Z,8.70
2018-07-02T01:03:11.928Z,8.18
2018-07-02T01:05:39.381Z,7.78
2018-07-02T01:08:06.817Z,10.50
2018-07-02T01:10:34.430Z,7.37
2018-07-02T01:13:01.934Z,8.55
2018-07-02T01:15:29.455Z,8.10
2018-07-02T01:17:56.934Z,7.95
2018-07-02T01:20:24.366Z,7.10
2018-07-02T01:22:51.769Z,7.60
2018-07-02T01:25:19.240Z,7.65
2018-07-02T01:27:46.723Z,6.85
2018-07-02T01:30:14.183Z,6.53
2018-07-02T01:32:41.691Z,8.05
2018-07-02T01:35:09.222Z,7.28
2018-07-02T01:37:36.685Z,7.05
2018-07-02T01:40:04.148Z,7.12
2018-07-02T01:42:31.645Z,6.20
2018-07-02T01:44:59.134Z,6.37
2018-07-02T01:47:26.617Z,5.22
2018-07-02T01:49:54.092Z,6.97
2018-07-02T01:52:21.551Z,97.65
2018-07-02T01:54:49.065Z,108.03
2018-07-02T01:57:16.508Z,96.35
2018-07-02T01:59:43.960Z,100.05
2018-07-02T02:02:11.467Z,100.45
2018-07-02T02:04:38.910Z,92.97
2018-07-02T02:07:06.392Z,97.68
2018-07-02T02:09:33.829Z,124.90
2018-07-02T02:12:01.276Z,89.70
2018-07-02T02:14:28.738Z,99.65
2018-07-02T02:16:56.275Z,98.07
2018-07-02T02:19:23.729Z,103.07
2018-07-02T02:21:51.200Z,95.72
2018-07-02T02:24:18.688Z,90.75
2018-07-02T02:26:46.964Z,101.25
2018-07-02T02:29:14.452Z,84.70
2018-07-02T02:31:41.931Z,90.30
2018-07-02T02:34:09.396Z,81.90
2018-07-02T02:36:36.858Z,82.85
2018-07-02T02:39:04.355Z,79.45
2018-07-02T02:41:31.871Z,79.10
2018-07-02T02:43:59.464Z,80.78
2018-07-02T02:46:26.913Z,82.30
2018-07-02T02:48:54.393Z,84.32
2018-07-02T02:51:21.924Z,80.35
2018-07-02T02:53:49.368Z,79.20
2018-07-02T02:56:16.798Z,81.72
2018-07-02T02:58:44.296Z,81.12
2018-07-02T03:01:11.881Z,76.75
2018-07-02T03:03:39.368Z,80.80
2018-07-02T03:06:06.795Z,78.65
2018-07-02T03:08:34.234Z,80.28
2018-07-02T03:11:01.689Z,76.07
2018-07-02T03:13:29.191Z,75.97
2018-07-02T03:15:56.696Z,72.53
2018-07-02T03:18:29.596Z,70.97
2018-07-02T03:20:57.045Z,68.55
2018-07-02T03:23:24.511Z,77.47
2018-07-02T03:25:52.035Z,92.88
2018-07-02T03:28:19.496Z,90.55
2018-07-02T03:30:47.075Z,95.68
2018-07-02T03:33:14.575Z,98.28
2018-07-02T03:35:42.093Z,93.55
2018-07-02T03:38:09.596Z,102.87
2018-07-02T03:40:37.106Z,104.00
2018-07-02T03:43:04.558Z,97.10
2018-07-02T03:45:32.036Z,98.05
2018-07-02T03:47:59.528Z,109.68
2018-07-02T03:50:27.030Z,90.28
2018-07-02T03:52:54.633Z,98.25
2018-07-02T03:55:22.153Z,99.75
2018-07-02T03:57:49.671Z,107.45
2018-07-02T04:00:17.166Z,112.45
2018-07-02T04:02:44.599Z,101.28
2018-07-02T04:05:12.243Z,102.03
2018-07-02T04:07:39.779Z,94.87
2018-07-02T04:10:07.306Z,105.55
2018-07-02T04:12:34.832Z,97.05
2018-07-02T04:15:02.325Z,93.20
2018-07-02T04:17:29.839Z,98.05
2018-07-02T04:19:57.441Z,128.05
2018-07-02T04:22:24.931Z,121.97
2018-07-02T04:24:52.450Z,130.57
2018-07-02T04:27:19.983Z,125.25
2018-07-02T04:29:47.664Z,109.45
2018-07-02T04:32:15.134Z,134.43
2018-07-02T04:34:42.672Z,123.53
2018-07-02T04:37:10.205Z,116.47
2018-07-02T04:39:37.651Z,126.62
2018-07-02T04:42:05.204Z,125.60
2018-07-02T04:44:32.690Z,116.15
2018-07-02T04:47:00.207Z,122.55
2018-07-02T04:49:27.685Z,115.05
2018-07-02T04:51:55.207Z,111.50
2018-07-02T04:54:22.827Z,112.88
2018-07-02T04:56:50.389Z,112.37
2018-07-02T04:59:18.022Z,105.45
2018-07-02T05:01:45.496Z,109.40
2018-07-02T05:04:13.164Z,102.45
2018-07-02T05:06:40.670Z,108.32
2018-07-02T05:09:08.142Z,107.25
2018-07-02T05:11:35.699Z,107.53
2018-07-02T05:14:03.444Z,106.15
2018-07-02T05:16:30.896Z,100.87
2018-07-02T05:18:58.746Z,107.97
2018-07-02T05:21:26.208Z,114.90
2018-07-02T05:23:53.765Z,119.20
2018-07-02T05:26:21.404Z,107.18
2018-07-02T05:28:48.847Z,111.93
2018-07-02T05:31:16.378Z,109.90
2018-07-02T05:33:43.840Z,101.12
2018-07-02T05:36:11.337Z,106.12
2018-07-02T05:38:38.814Z,114.45
2018-07-02T05:41:06.301Z,113.45
2018-07-02T05:43:33.791Z,108.00
2018-07-02T05:46:01.357Z,108.18
2018-07-02T05:48:28.850Z,108.47
2018-07-02T05:50:56.359Z,110.40
2018-07-02T05:53:23.837Z,106.63
2018-07-02T05:55:51.282Z,100.70
2018-07-02T05:58:18.821Z,112.28
2018-07-02T06:00:46.400Z,124.62
2018-07-02T06:03:13.867Z,107.32
2018-07-02T06:05:41.456Z,108.90
2018-07-02T06:08:09.139Z,112.53
2018-07-02T06:10:36.706Z,110.20
2018-07-02T06:13:04.381Z,115.95
2018-07-02T06:15:32.336Z,113.47
2018-07-02T06:17:59.780Z,110.70
2018-07-02T06:20:27.746Z,106.10
2018-07-02T06:22:55.280Z,105.78
2018-07-02T06:25:22.766Z,97.78
2018-07-02T06:27:50.336Z,103.55
2018-07-02T06:30:17.816Z,106.28
2018-07-02T06:32:45.442Z,105.75
2018-07-02T06:35:12.922Z,110.35
2018-07-02T06:37:40.416Z,103.47
2018-07-02T06:40:08.056Z,119.13
2018-07-02T06:42:35.523Z,107.40
2018-07-02T06:45:02.953Z,117.35
2018-07-02T06:47:30.527Z,113.60
2018-07-02T06:49:58.007Z,108.53
2018-07-02T06:54:59.362Z,120.90
2018-07-02T06:57:26.866Z,120.03
2018-07-02T06:59:54.372Z,123.18
2018-07-02T07:02:21.904Z,130.15
2018-07-02T07:04:49.375Z,127.55
2018-07-02T07:07:16.819Z,126.40
2018-07-02T07:09:44.501Z,121.80
2018-07-02T07:12:11.983Z,121.78
2018-07-02T07:14:39.499Z,115.97
2018-07-02T07:17:06.948Z,126.50
2018-07-02T07:19:34.386Z,121.45
2018-07-02T07:22:02.021Z,121.07
2018-07-02T07:24:30.034Z,132.20
2018-07-02T07:26:57.621Z,109.12
2018-07-02T07:29:26.091Z,109.68
2018-07-02T07:31:53.550Z,120.22
2018-07-02T07:34:21.050Z,119.32
2018-07-02T07:36:48.501Z,119.57
2018-07-02T07:39:16.032Z,124.93
2018-07-02T07:41:43.485Z,128.73
2018-07-02T07:44:10.976Z,137.10
2018-07-02T07:46:38.410Z,132.10
2018-07-02T07:49:05.887Z,135.85
2018-07-02T07:51:33.720Z,129.50
2018-07-02T07:54:01.195Z,136.57
2018-07-02T07:56:28.692Z,124.47
2018-07-02T07:58:56.248Z,134.87
2018-07-02T08:01:23.767Z,134.00
2018-07-02T08:03:51.261Z,125.70
2018-07-02T08:06:18.768Z,135.48
2018-07-02T08:08:46.252Z,133.57
2018-07-02T08:11:13.824Z,128.52
2018-07-02T08:13:41.253Z,140.15
2018-07-02T08:16:08.743Z,142.35
2018-07-02T08:18:36.199Z,137.00
2018-07-02T08:21:03.683Z,143.35
2018-07-02T08:23:31.188Z,132.18
2018-07-02T08:25:59.018Z,138.95
2018-07-02T08:28:26.527Z,145.30
2018-07-02T08:30:54.013Z,141.62
2018-07-02T08:33:21.497Z,154.27
2018-07-02T08:35:48.919Z,155.07
2018-07-02T08:38:16.403Z,154.60
2018-07-02T08:40:43.844Z,157.18
2018-07-02T08:43:11.463Z,156.00
2018-07-02T08:45:38.934Z,167.98
2018-07-02T08:48:06.384Z,159.35
2018-07-02T08:50:33.841Z,154.07
2018-07-02T08:53:01.508Z,149.35
2018-07-02T08:55:29.020Z,166.02
2018-07-02T08:57:56.484Z,148.93
2018-07-02T09:00:24.109Z,146.62
2018-07-02T09:02:51.953Z,158.37
2018-07-02T09:05:19.447Z,148.38
2018-07-02T09:07:46.896Z,163.62
2018-07-02T09:10:14.493Z,159.95
2018-07-02T09:12:42.002Z,164.62
2018-07-02T09:15:09.451Z,150.80
2018-07-02T09:17:37.030Z,161.05
2018-07-02T09:20:04.569Z,154.57
2018-07-02T09:22:32.064Z,154.10
2018-07-02T09:24:59.797Z,167.35
2018-07-02T09:27:27.437Z,148.43
2018-07-02T09:29:54.951Z,149.45
2018-07-02T09:32:22.525Z,158.25
2018-07-02T09:34:50.212Z,162.18
2018-07-02T09:37:17.459Z,152.27
2018-07-02T09:39:44.987Z,11.00
2018-07-02T09:42:12.489Z,12.95
2018-07-02T09:44:39.977Z,10.57
2018-07-02T09:47:07.521Z,12.85
2018-07-02T09:49:34.958Z,13.13
2018-07-02T09:52:02.488Z,89.62
2018-07-02T09:54:29.976Z,15.98
2018-07-02T09:56:57.501Z,12.50
2018-07-02T09:59:24.947Z,18.35
2018-07-02T10:01:53.017Z,18.12
2018-07-02T10:04:20.495Z,12.48
2018-07-02T10:06:48.035Z,10.82
2018-07-02T10:09:15.731Z,14.30
2018-07-02T10:11:43.458Z,15.00
2018-07-02T10:14:10.888Z,14.65
2018-07-02T10:16:38.413Z,11.60
2018-07-02T10:19:05.978Z,10.27
2018-07-02T10:21:33.438Z,12.00
2018-07-02T10:24:00.934Z,11.10
2018-07-02T10:26:28.428Z,12.60
2018-07-02T10:28:55.858Z,12.90
2018-07-02T10:31:23.516Z,12.23
2018-07-02T10:33:50.854Z,10.68
2018-07-02T10:36:18.401Z,11.27
2018-07-02T10:38:46.220Z,10.93
2018-07-02T10:41:13.883Z,11.02
2018-07-02T10:43:41.442Z,12.85
2018-07-02T10:46:09.392Z,16.75
2018-07-02T10:48:37.047Z,35.70
2018-07-02T10:51:04.595Z,28.85
2018-07-02T10:53:32.095Z,30.85
2018-07-02T10:56:00.107Z,35.75
2018-07-02T10:58:27.658Z,37.83
2018-07-02T11:00:55.109Z,37.88
2018-07-02T11:03:22.596Z,40.88
2018-07-02T11:05:50.159Z,44.90
2018-07-02T11:08:17.825Z,48.28
2018-07-02T11:10:45.452Z,46.17
2018-07-02T11:13:13.079Z,49.13
2018-07-02T11:15:40.593Z,50.50
2018-07-02T11:18:08.200Z,49.55
2018-07-02T11:20:35.680Z,53.72
2018-07-02T11:23:03.222Z,52.80
2018-07-02T11:25:30.655Z,57.60
2018-07-02T11:27:58.146Z,53.17
2018-07-02T11:30:25.649Z,65.12
2018-07-02T11:32:53.049Z,72.70
2018-07-02T11:35:21.477Z,70.22
2018-07-02T11:37:49.016Z,64.28
2018-07-02T11:40:16.489Z,56.72
2018-07-02T11:42:43.946Z,69.85
2018-07-02T11:45:11.384Z,73.30
2018-07-02T11:47:38.891Z,78.12
2018-07-02T11:50:06.397Z,84.30
2018-07-02T11:52:33.900Z,94.40
2018-07-02T11:55:01.358Z,87.43
2018-07-02T11:57:29.043Z,99.05
2018-07-02T11:59:56.469Z,94.15
2018-07-02T12:02:24.017Z,95.78
2018-07-02T12:04:52.818Z,91.90
2018-07-02T12:07:20.277Z,97.45
2018-07-02T12:09:47.825Z,103.87
2018-07-02T12:12:15.347Z,95.03
2018-07-02T12:14:43.484Z,89.78
2018-07-02T12:17:10.969Z,93.60
2018-07-02T12:19:38.453Z,97.75
2018-07-02T12:22:05.953Z,99.50
2018-07-02T12:24:33.377Z,100.70
2018-07-02T12:27:01.020Z,102.62
2018-07-02T12:29:28.479Z,100.85
2018-07-02T12:31:56.048Z,90.95
2018-07-02T12:34:23.515Z,14.23
2018-07-02T12:36:51.030Z,16.33
2018-07-02T12:39:18.501Z,11.85
2018-07-02T12:41:46.842Z,15.05
2018-07-02T12:44:14.338Z,13.18
2018-07-02T12:46:41.860Z,19.20
2018-07-02T12:49:09.230Z,18.25
2018-07-02T12:51:36.707Z,17.30
2018-07-02T12:54:04.287Z,16.95
2018-07-02T12:56:31.750Z,16.48
2018-07-02T12:58:59.685Z,14.55
2018-07-02T13:01:27.331Z,19.05
2018-07-02T13:03:55.167Z,15.48
2018-07-02T13:06:22.763Z,11.27
2018-07-02T13:08:50.247Z,14.65
2018-07-02T13:11:17.740Z,15.10
2018-07-02T13:13:45.192Z,14.20
2018-07-02T13:16:12.820Z,18.50
2018-07-02T13:18:40.244Z,16.30
2018-07-02T13:21:07.747Z,17.08
2018-07-02T13:23:35.310Z,19.67
2018-07-02T13:26:03.592Z,21.73
2018-07-02T13:28:31.127Z,16.60
2018-07-02T13:30:58.763Z,16.77
2018-07-02T13:33:26.267Z,14.00
2018-07-02T13:35:53.735Z,18.40
2018-07-02T13:38:21.190Z,23.30
2018-07-02T13:40:48.735Z,21.00
2018-07-02T13:43:16.213Z,17.05
2018-07-02T13:45:43.734Z,20.88
2018-07-02T13:48:11.383Z,20.73
2018-07-02T13:50:39.145Z,21.08
2018-07-02T13:53:06.612Z,21.55
2018-07-02T13:55:34.251Z,22.85
2018-07-02T13:58:01.712Z,17.70
2018-07-02T14:00:29.311Z,20.50
2018-07-02T14:02:56.748Z,23.35
2018-07-02T14:05:24.312Z,23.25
2018-07-02T14:07:51.830Z,22.58
2018-07-02T14:10:19.255Z,28.05
2018-07-02T14:12:47.268Z,19.62
2018-07-02T14:15:15.754Z,22.50
2018-07-02T14:17:43.278Z,20.98
2018-07-02T14:20:10.822Z,16.02
2018-07-02T14:22:38.268Z,21.30
2018-07-02T14:25:05.738Z,16.52
2018-07-02T14:27:33.299Z,16.58
2018-07-02T14:30:00.813Z,13.10
2018-07-02T14:32:28.339Z,14.60
2018-07-02T14:34:55.876Z,15.20
2018-07-02T14:37:23.332Z,20.60
2018-07-02T14:39:50.788Z,17.35
2018-07-02T14:42:18.325Z,15.50
2018-07-02T14:44:45.908Z,20.23
2018-07-02T14:47:13.438Z,17.55
2018-07-02T14:49:40.920Z,15.95
2018-07-02T14:52:08.444Z,13.43
2018-07-02T14:54:35.923Z,20.50
2018-07-02T14:57:03.380Z,16.48
2018-07-02T14:59:31.515Z,18.75
2018-07-02T15:01:59.159Z,13.10
2018-07-02T15:04:26.601Z,14.77
2018-07-02T15:06:54.126Z,16.55
2018-07-02T15:09:21.625Z,13.38
2018-07-02T15:11:49.200Z,15.57
2018-07-02T15:14:16.845Z,14.98
2018-07-02T15:16:44.263Z,15.00
2018-07-02T15:19:11.788Z,20.98
2018-07-02T15:21:39.255Z,20.00
2018-07-02T15:24:06.767Z,18.42
2018-07-02T15:26:34.269Z,18.98
2018-07-02T15:29:01.777Z,23.73
2018-07-02T15:31:29.372Z,20.42
2018-07-02T15:33:56.877Z,15.52
2018-07-02T15:36:24.750Z,13.20
2018-07-02T15:38:52.388Z,16.60
2018-07-02T15:41:19.967Z,13.38
2018-07-02T15:43:47.556Z,15.32
2018-07-02T15:46:15.078Z,14.63
2018-07-02T15:48:42.594Z,15.40
2018-07-02T15:51:10.091Z,13.18
2018-07-02T15:53:37.582Z,13.68
2018-07-02T15:56:05.035Z,13.23
2018-07-02T15:58:32.509Z,13.50
2018-07-02T16:00:59.963Z,15.73
2018-07-02T16:03:27.513Z,14.23
2018-07-02T16:05:55.075Z,14.00
2018-07-02T16:08:22.647Z,15.65
2018-07-02T16:10:50.091Z,14.07
2018-07-02T16:13:17.574Z,13.57
2018-07-02T16:15:45.043Z,9.73
2018-07-02T16:18:12.486Z,15.07
2018-07-02T16:20:40.045Z,11.02
2018-07-02T16:23:07.589Z,14.32
2018-07-02T16:25:35.103Z,13.45
2018-07-02T16:28:02.818Z,14.07
2018-07-02T16:30:30.292Z,10.10
2018-07-02T16:32:57.879Z,11.77
2018-07-02T16:35:25.381Z,13.25
2018-07-02T16:37:53.098Z,10.68
2018-07-02T16:40:20.681Z,11.70
2018-07-02T16:42:48.248Z,9.48
2018-07-02T16:45:15.661Z,9.45
2018-07-02T16:47:43.094Z,12.95
2018-07-02T16:50:10.542Z,10.68
2018-07-02T16:52:38.021Z,10.82
2018-07-02T16:55:05.577Z,11.98
2018-07-02T16:57:33.012Z,10.70
2018-07-02T17:00:00.615Z,8.65
2018-07-02T17:02:28.077Z,11.12
2018-07-02T17:04:55.804Z,10.10
2018-07-02T17:07:23.317Z,10.68
2018-07-02T17:09:50.860Z,12.90
2018-07-02T17:12:18.442Z,10.30
2018-07-02T17:14:46.007Z,10.73
2018-07-02T17:17:13.535Z,11.25
2018-07-02T17:19:41.096Z,9.20
2018-07-02T17:22:08.729Z,11.12
2018-07-02T17:24:36.159Z,10.95
2018-07-02T17:27:03.579Z,10.23
2018-07-02T17:29:31.058Z,9.73
2018-07-02T17:31:58.544Z,9.68
2018-07-02T17:34:26.313Z,9.95
2018-07-02T17:36:53.761Z,9.55
2018-07-02T17:39:21.185Z,11.00
2018-07-02T17:41:48.733Z,13.07
2018-07-02T17:44:16.166Z,11.07
2018-07-02T17:46:43.847Z,16.52
2018-07-02T17:49:11.427Z,10.02
2018-07-02T17:51:38.921Z,13.00
2018-07-02T17:54:06.413Z,14.05
2018-07-02T17:56:34.010Z,11.10
2018-07-02T17:59:01.539Z,12.95
2018-07-02T18:01:28.997Z,11.85
2018-07-02T18:03:56.541Z,12.23
2018-07-02T18:06:24.076Z,11.30
2018-07-02T18:08:51.522Z,11.68
2018-07-02T18:11:19.060Z,13.05
2018-07-02T18:13:46.635Z,12.20
2018-07-02T18:16:14.104Z,10.65
2018-07-02T18:18:41.543Z,9.98
2018-07-02T18:21:09.048Z,14.00
2018-07-02T18:23:36.509Z,13.65
2018-07-02T18:26:03.907Z,12.90
2018-07-02T18:28:31.327Z,12.10
2018-07-02T18:30:58.860Z,13.73
2018-07-02T18:33:26.318Z,10.20
2018-07-02T18:35:53.772Z,13.95
2018-07-02T18:38:21.201Z,12.70
2018-07-02T18:40:48.765Z,10.77
2018-07-02T18:43:17.181Z,12.10
2018-07-02T18:45:44.610Z,12.18
2018-07-02T18:48:12.069Z,12.25
2018-07-02T18:50:39.534Z,10.80
2018-07-02T18:53:07.094Z,11.75
2018-07-02T18:55:34.670Z,12.70
2018-07-02T18:58:02.146Z,9.70
2018-07-02T19:00:29.628Z,10.50
2018-07-02T19:02:57.393Z,15.30
2018-07-02T19:05:24.919Z,10.73
2018-07-02T19:07:52.731Z,10.13
2018-07-02T19:10:20.732Z,11.50
2018-07-02T19:12:49.670Z,13.13
2018-07-02T19:15:17.241Z,13.10
2018-07-02T19:17:44.765Z,13.40
2018-07-02T19:20:13.079Z,13.68
2018-07-02T19:22:40.634Z,13.32
2018-07-02T19:25:08.154Z,14.45
2018-07-02T19:27:35.596Z,11.15
2018-07-02T19:30:03.296Z,12.65
2018-07-02T19:32:30.902Z,11.18
2018-07-02T19:34:58.715Z,10.52
2018-07-02T19:37:26.192Z,9.25
2018-07-02T19:39:53.663Z,14.02
2018-07-02T19:42:21.921Z,9.35
2018-07-02T19:44:50.010Z,11.50
2018-07-02T19:47:17.467Z,10.20
2018-07-02T19:49:44.932Z,12.55
2018-07-02T19:52:12.563Z,8.35
2018-07-02T19:54:40.176Z,11.23
2018-07-02T19:57:07.701Z,14.35
2018-07-02T19:59:35.212Z,12.55
2018-07-02T20:02:02.711Z,12.00
2018-07-02T20:04:30.246Z,10.90
2018-07-02T20:06:57.822Z,11.30
2018-07-02T20:09:25.275Z,13.02
2018-07-02T20:11:52.743Z,10.73
2018-07-02T20:14:20.179Z,12.68
2018-07-02T20:16:47.705Z,13.48
2018-07-02T20:19:15.755Z,11.90
2018-07-02T20:21:43.154Z,13.05
2018-07-02T20:24:10.643Z,19.20
2018-07-02T20:26:38.114Z,20.15
2018-07-02T20:29:05.558Z,15.35
2018-07-02T20:31:33.026Z,15.23
2018-07-02T20:34:00.464Z,15.43
2018-07-02T20:36:27.957Z,9.48
2018-07-02T20:38:55.446Z,11.40
2018-07-02T20:41:22.933Z,12.48
2018-07-02T20:43:50.461Z,10.70
2018-07-02T20:46:18.196Z,11.00
2018-07-02T20:48:45.604Z,10.63
2018-07-02T20:51:13.134Z,13.65
2018-07-02T20:53:40.594Z,15.30
2018-07-02T20:56:08.081Z,12.57
2018-07-02T20:58:35.623Z,9.82
2018-07-02T21:01:03.090Z,9.05
2018-07-02T21:03:30.554Z,12.40
2018-07-02T21:05:57.983Z,11.43
2018-07-02T21:08:25.503Z,11.25
2018-07-02T21:10:52.955Z,10.35
2018-07-02T21:13:20.454Z,8.32
2018-07-02T21:15:47.897Z,9.55
2018-07-02T21:18:15.272Z,8.10
2018-07-02T21:20:42.693Z,7.15
2018-07-02T21:23:10.140Z,9.60
2018-07-02T21:25:37.571Z,8.48
2018-07-02T21:28:04.984Z,9.27
2018-07-02T21:30:32.442Z,8.23
2018-07-02T21:32:59.894Z,7.55
2018-07-02T21:35:27.346Z,8.32
2018-07-02T21:37:54.787Z,8.75
2018-07-02T21:40:22.215Z,6.85
2018-07-02T21:42:49.632Z,7.62
2018-07-02T21:45:17.121Z,8.35
2018-07-02T21:47:44.589Z,8.20
2018-07-02T21:50:12.132Z,11.43
2018-07-02T21:52:39.611Z,9.77
2018-07-02T21:55:07.077Z,9.38
2018-07-02T21:57:34.537Z,10.95
2018-07-02T22:00:01.943Z,9.18
2018-07-02T22:02:29.579Z,9.00
2018-07-02T22:04:56.994Z,8.02
2018-07-02T22:07:25.063Z,10.25
2018-07-02T22:09:52.508Z,9.55
2018-07-02T22:12:19.972Z,11.20
2018-07-02T22:14:47.425Z,14.05
2018-07-02T22:17:14.837Z,11.75
2018-07-02T22:19:42.294Z,9.25
2018-07-02T22:22:09.754Z,9.00
2018-07-02T22:24:37.219Z,9.30
2018-07-02T22:27:04.786Z,10.02
2018-07-02T22:29:32.235Z,10.00
2018-07-02T22:31:59.854Z,8.55
2018-07-02T22:34:27.297Z,9.15
2018-07-02T22:36:54.779Z,6.90
2018-07-02T22:39:22.203Z,8.77
2018-07-02T22:41:49.702Z,8.95
2018-07-02T22:44:17.103Z,8.48
2018-07-02T22:46:44.589Z,9.10
2018-07-02T22:49:12.116Z,7.20
2018-07-02T22:51:39.580Z,8.32
2018-07-02T22:54:07.169Z,8.48
2018-07-02T22:56:34.618Z,9.95
2018-07-02T22:59:02.322Z,9.05
2018-07-02T23:01:29.755Z,9.65
2018-07-02T23:03:57.241Z,14.35
2018-07-02T23:06:24.783Z,8.93
2018-07-02T23:08:52.227Z,8.60
2018-07-02T23:11:19.685Z,8.57
2018-07-02T23:13:47.132Z,8.15
2018-07-02T23:16:14.614Z,7.15
2018-07-02T23:18:42.229Z,7.97
2018-07-02T23:21:09.689Z,8.68
2018-07-02T23:23:37.179Z,7.90
2018-07-02T23:26:04.655Z,7.60
2018-07-02T23:28:32.120Z,86.95
2018-07-02T23:30:59.965Z,85.20
2018-07-02T23:33:27.447Z,97.75
2018-07-02T23:35:54.871Z,105.22
2018-07-02T23:38:22.363Z,10.05
2018-07-02T23:40:49.930Z,10.48
2018-07-02T23:43:17.388Z,9.48
2018-07-02T23:45:44.912Z,8.23
2018-07-02T23:48:12.458Z,7.82
2018-07-02T23:50:39.908Z,7.28
2018-07-02T23:53:07.378Z,6.80
2018-07-02T23:55:34.816Z,7.00
2018-07-02T23:58:02.248Z,8.18
